createdAt,value
2019-05-03T00:00:22.334Z,15.30
2019-05-03T00:03:01.607Z,15.40
2019-05-03T00:05:37.426Z,15.40
2019-05-03T00:08:07.315Z,15.50
2019-05-03T00:10:37.992Z,15.50
2019-05-03T00:13:08.477Z,15.50
2019-05-03T00:15:39.797Z,15.50
2019-05-03T00:18:11.628Z,15.50
2019-05-03T00:20:42.017Z,15.30
2019-05-03T00:23:13.190Z,15.40
2019-05-03T00:25:42.803Z,15.40
2019-05-03T00:28:13.285Z,15.50
2019-05-03T00:30:43.337Z,15.40
2019-05-03T00:33:12.978Z,15.40
2019-05-03T00:35:52.944Z,15.40
2019-05-03T00:38:22.571Z,15.40
2019-05-03T00:40:52.411Z,15.20
2019-05-03T00:43:22.344Z,15.20
2019-05-03T00:45:52.166Z,15.20
2019-05-03T00:48:21.951Z,15.20
2019-05-03T00:50:52.722Z,15.20
2019-05-03T00:53:22.499Z,15.30
2019-05-03T00:55:52.575Z,15.20
2019-05-03T00:58:22.583Z,15.10
2019-05-03T01:00:52.558Z,15.10
2019-05-03T01:03:22.475Z,15.00
2019-05-03T01:05:52.940Z,15.00
2019-05-03T01:08:22.894Z,15.00
2019-05-03T01:10:54.563Z,14.90
2019-05-03T01:13:24.106Z,14.80
2019-05-03T01:16:02.764Z,15.00
2019-05-03T01:18:32.622Z,14.90
2019-05-03T01:21:02.375Z,14.90
2019-05-03T01:23:32.645Z,14.70
2019-05-03T01:26:02.614Z,14.80
2019-05-03T01:28:32.463Z,14.80
2019-05-03T01:31:02.510Z,14.80
2019-05-03T01:33:32.518Z,14.90
2019-05-03T01:36:02.709Z,14.90
2019-05-03T01:38:33.758Z,15.00
2019-05-03T01:41:03.376Z,15.10
2019-05-03T01:43:32.988Z,14.90
2019-05-03T01:46:02.839Z,14.80
2019-05-03T01:48:46.184Z,14.80
2019-05-03T01:51:21.922Z,14.80
2019-05-03T01:53:52.353Z,14.90
2019-05-03T01:56:22.403Z,14.90
2019-05-03T01:58:52.470Z,14.90
2019-05-03T02:01:31.487Z,14.90
2019-05-03T02:04:12.222Z,14.90
2019-05-03T02:06:42.454Z,14.90
2019-05-03T02:09:12.340Z,15.00
2019-05-03T02:11:42.240Z,14.80
2019-05-03T02:14:12.463Z,14.70
2019-05-03T02:16:42.172Z,14.90
2019-05-03T02:19:12.645Z,15.00
2019-05-03T02:21:42.306Z,15.00
2019-05-03T02:24:11.945Z,14.80
2019-05-03T02:26:42.655Z,14.90
2019-05-03T02:29:12.641Z,14.80
2019-05-03T02:31:43.614Z,14.90
2019-05-03T02:34:14.406Z,15.00
2019-05-03T02:36:43.813Z,15.00
2019-05-03T02:39:14.992Z,15.10
2019-05-03T02:41:47.869Z,14.90
2019-05-03T02:44:19.163Z,14.80
2019-05-03T02:46:56.384Z,14.90
2019-05-03T02:49:29.356Z,14.80
2019-05-03T02:51:59.763Z,14.60
2019-05-03T02:54:29.375Z,14.50
2019-05-03T02:56:58.895Z,14.50
2019-05-03T02:59:28.515Z,14.40
2019-05-03T03:01:58.424Z,14.40
2019-05-03T03:04:28.334Z,14.50
2019-05-03T03:06:59.123Z,14.50
2019-05-03T03:09:29.735Z,14.60
2019-05-03T03:12:01.416Z,14.40
2019-05-03T03:14:32.566Z,14.30
2019-05-03T03:17:06.695Z,14.40
2019-05-03T03:19:38.067Z,14.40
2019-05-03T03:22:11.232Z,14.50
2019-05-03T03:24:45.929Z,14.40
2019-05-03T03:27:19.003Z,14.30
2019-05-03T03:29:51.551Z,14.40
2019-05-03T03:32:29.084Z,14.50
2019-05-03T03:35:09.118Z,14.50
2019-05-03T03:37:35.245Z,14.30
2019-05-03T03:40:06.284Z,14.40
2019-05-03T03:42:38.012Z,14.30
2019-05-03T03:45:08.092Z,14.40
2019-05-03T03:47:40.783Z,14.40
2019-05-03T03:50:11.167Z,14.40
2019-05-03T03:52:44.997Z,14.40
2019-05-03T03:55:15.937Z,14.40
2019-05-03T03:57:46.809Z,14.30
2019-05-03T04:00:17.174Z,14.20
2019-05-03T04:02:46.804Z,14.20
2019-05-03T04:05:16.818Z,14.30
2019-05-03T04:07:46.803Z,14.40
2019-05-03T04:10:16.611Z,14.50
2019-05-03T04:12:47.696Z,14.50
2019-05-03T04:15:19.361Z,14.50
2019-05-03T04:17:56.773Z,14.30
2019-05-03T04:20:29.508Z,14.30
2019-05-03T04:22:59.693Z,14.40
2019-05-03T04:25:29.433Z,14.50
2019-05-03T04:27:59.045Z,14.50
2019-05-03T04:30:28.591Z,14.60
2019-05-03T04:32:58.218Z,14.50
2019-05-03T04:35:27.659Z,14.50
2019-05-03T04:37:57.135Z,14.50
2019-05-03T04:40:26.727Z,14.60
2019-05-03T04:42:56.351Z,14.60
2019-05-03T04:45:27.003Z,14.70
2019-05-03T04:47:56.707Z,14.70
2019-05-03T04:50:26.201Z,14.80
2019-05-03T04:52:56.709Z,14.80
2019-05-03T04:55:27.274Z,14.70
2019-05-03T04:57:56.725Z,14.70
2019-05-03T05:00:26.715Z,14.70
2019-05-03T05:02:56.178Z,14.70
2019-05-03T05:05:26.407Z,14.70
2019-05-03T05:07:56.148Z,14.70
2019-05-03T05:10:26.350Z,14.80
2019-05-03T05:12:56.007Z,14.80
2019-05-03T05:15:26.550Z,14.80
2019-05-03T05:18:01.059Z,14.90
2019-05-03T05:20:35.083Z,14.90
2019-05-03T05:23:05.319Z,14.80
2019-05-03T05:25:36.544Z,14.70
2019-05-03T05:28:07.774Z,14.70
2019-05-03T05:30:37.499Z,14.80
2019-05-03T05:33:08.651Z,15.00
2019-05-03T05:35:38.494Z,15.10
2019-05-03T05:38:07.978Z,15.30
2019-05-03T05:40:37.740Z,15.80
2019-05-03T05:43:07.227Z,15.90
2019-05-03T05:45:36.982Z,16.20
2019-05-03T05:48:08.987Z,16.60
2019-05-03T05:50:40.179Z,16.60
2019-05-03T05:53:09.802Z,16.70
2019-05-03T05:55:56.259Z,16.90
2019-05-03T05:58:27.407Z,16.70
2019-05-03T06:01:05.493Z,16.60
2019-05-03T06:03:35.271Z,16.60
2019-05-03T06:06:06.820Z,17.00
2019-05-03T06:08:44.676Z,17.30
2019-05-03T06:11:19.427Z,17.40
2019-05-03T06:13:50.695Z,17.50
2019-05-03T06:16:24.670Z,17.70
2019-05-03T06:18:55.878Z,17.90
2019-05-03T06:21:27.099Z,17.70
2019-05-03T06:23:58.422Z,17.20
2019-05-03T06:26:38.291Z,16.90
2019-05-03T06:29:08.179Z,16.60
2019-05-03T06:31:55.913Z,16.30
2019-05-03T06:34:26.672Z,16.30
2019-05-03T06:37:00.602Z,16.10
2019-05-03T06:39:30.537Z,16.10
2019-05-03T06:41:59.982Z,16.20
2019-05-03T06:44:29.599Z,16.10
2019-05-03T06:47:01.205Z,16.20
2019-05-03T06:49:30.606Z,16.10
2019-05-03T06:52:00.111Z,16.00
2019-05-03T06:54:30.096Z,16.40
2019-05-03T06:57:04.830Z,16.70
2019-05-03T06:59:41.775Z,16.70
2019-05-03T07:02:28.637Z,16.60
2019-05-03T07:05:00.259Z,16.90
2019-05-03T07:07:44.437Z,17.20
2019-05-03T07:10:25.631Z,17.80
2019-05-03T07:12:58.660Z,17.80
2019-05-03T07:15:31.331Z,17.90
2019-05-03T07:18:01.012Z,17.90
2019-05-03T07:20:32.342Z,17.70
2019-05-03T07:23:01.819Z,17.90
2019-05-03T07:25:31.463Z,17.70
2019-05-03T07:28:01.075Z,17.50
2019-05-03T07:30:34.383Z,17.50
2019-05-03T07:33:08.251Z,16.80
2019-05-03T07:35:37.802Z,17.40
2019-05-03T07:38:07.529Z,17.10
2019-05-03T07:40:36.975Z,16.90
2019-05-03T07:43:06.587Z,16.80
2019-05-03T07:45:36.195Z,16.90
2019-05-03T07:48:05.884Z,16.90
2019-05-03T07:50:35.967Z,16.80
2019-05-03T07:53:05.583Z,16.80
2019-05-03T07:55:54.783Z,16.90
2019-05-03T07:58:26.207Z,17.10
2019-05-03T08:01:06.131Z,17.10
2019-05-03T08:03:28.693Z,17.20
2019-05-03T08:05:58.207Z,17.20
2019-05-03T08:08:27.924Z,17.30
2019-05-03T08:10:58.822Z,17.40
2019-05-03T08:13:28.430Z,17.50
2019-05-03T08:15:58.291Z,17.50
2019-05-03T08:18:27.815Z,17.40
2019-05-03T08:20:58.485Z,17.20
2019-05-03T08:23:30.257Z,17.20
2019-05-03T08:25:59.199Z,17.30
2019-05-03T08:28:28.859Z,17.20
2019-05-03T08:31:04.626Z,17.20
2019-05-03T08:33:41.511Z,17.20
2019-05-03T08:36:11.208Z,17.40
2019-05-03T08:38:40.792Z,17.30
2019-05-03T08:41:11.947Z,17.20
2019-05-03T08:43:41.495Z,17.20
2019-05-03T08:46:10.943Z,17.40
2019-05-03T08:48:41.666Z,17.40
2019-05-03T08:51:11.176Z,17.40
2019-05-03T08:53:40.724Z,17.40
2019-05-03T08:56:10.266Z,17.30
2019-05-03T08:58:39.821Z,17.50
2019-05-03T09:01:09.491Z,17.60
2019-05-03T09:03:38.973Z,17.60
2019-05-03T09:06:08.557Z,17.60
2019-05-03T09:08:38.171Z,17.80
2019-05-03T09:11:12.339Z,18.20
2019-05-03T09:13:46.400Z,18.40
2019-05-03T09:16:17.356Z,18.10
2019-05-03T09:18:47.003Z,17.80
2019-05-03T09:21:16.515Z,17.70
2019-05-03T09:23:46.132Z,17.80
2019-05-03T09:26:15.747Z,17.70
2019-05-03T09:28:45.519Z,17.60
2019-05-03T09:31:15.647Z,17.70
2019-05-03T09:33:45.539Z,17.70
2019-05-03T09:36:15.086Z,17.70
2019-05-03T09:38:45.966Z,17.70
2019-05-03T09:41:15.547Z,17.70
2019-05-03T09:43:45.310Z,17.90
2019-05-03T09:46:15.124Z,18.00
2019-05-03T09:48:45.565Z,18.00
2019-05-03T09:51:15.219Z,17.90
2019-05-03T09:53:46.299Z,17.80
2019-05-03T09:56:15.843Z,17.80
2019-05-03T09:58:46.105Z,17.70
2019-05-03T10:01:15.835Z,17.60
2019-05-03T10:03:46.379Z,17.80
2019-05-03T10:06:17.627Z,17.70
2019-05-03T10:08:49.886Z,17.80
2019-05-03T10:11:19.358Z,17.90
2019-05-03T10:13:49.043Z,17.90
2019-05-03T10:16:19.572Z,17.90
2019-05-03T10:18:49.163Z,17.80
2019-05-03T10:21:19.112Z,17.70
2019-05-03T10:23:48.803Z,17.40
2019-05-03T10:26:18.385Z,17.10
2019-05-03T10:28:48.136Z,17.10
2019-05-03T10:31:18.125Z,17.20
2019-05-03T10:33:53.314Z,17.30
2019-05-03T10:36:24.788Z,17.20
2019-05-03T10:38:55.368Z,17.20
2019-05-03T10:41:25.401Z,17.20
2019-05-03T10:43:55.712Z,17.00
2019-05-03T10:46:25.717Z,17.00
2019-05-03T10:48:55.873Z,17.00
2019-05-03T10:51:27.502Z,17.00
2019-05-03T10:53:58.696Z,17.10
2019-05-03T10:56:38.889Z,17.20
2019-05-03T10:59:10.265Z,17.40
2019-05-03T11:01:59.861Z,17.40
2019-05-03T11:04:30.091Z,17.30
2019-05-03T11:06:59.528Z,17.30
2019-05-03T11:09:29.149Z,17.30
2019-05-03T11:12:00.465Z,17.30
2019-05-03T11:14:30.411Z,17.00
2019-05-03T11:17:00.661Z,16.90
2019-05-03T11:19:30.554Z,17.20
2019-05-03T11:22:14.567Z,17.30
2019-05-03T11:24:45.437Z,17.20
2019-05-03T11:27:16.955Z,17.00
2019-05-03T11:29:46.471Z,16.70
2019-05-03T11:32:17.692Z,16.70
2019-05-03T11:34:55.411Z,16.50
2019-05-03T11:37:45.460Z,16.20
2019-05-03T11:40:15.857Z,16.10
2019-05-03T11:42:46.133Z,16.20
2019-05-03T11:45:16.338Z,16.10
2019-05-03T11:47:45.984Z,16.10
2019-05-03T11:50:22.107Z,16.00
2019-05-03T11:52:52.367Z,16.10
2019-05-03T11:55:22.007Z,16.20
2019-05-03T11:57:51.659Z,16.20
2019-05-03T12:00:25.318Z,16.20
2019-05-03T12:03:04.843Z,16.10
2019-05-03T12:05:34.397Z,16.10
2019-05-03T12:08:05.444Z,16.40
2019-05-03T12:10:50.296Z,16.60
2019-05-03T12:13:17.474Z,16.50
2019-05-03T12:15:51.335Z,16.60
2019-05-03T12:18:25.118Z,16.60
2019-05-03T12:20:57.223Z,16.60
2019-05-03T12:23:31.307Z,16.60
2019-05-03T12:26:01.109Z,16.70
2019-05-03T12:28:31.392Z,16.70
2019-05-03T12:31:01.322Z,16.70
2019-05-03T12:33:35.152Z,16.60
2019-05-03T12:36:05.479Z,16.60
2019-05-03T12:38:35.306Z,16.60
2019-05-03T12:41:05.702Z,16.70
2019-05-03T12:43:35.798Z,16.70
2019-05-03T12:46:05.673Z,16.80
2019-05-03T12:48:37.224Z,16.90
2019-05-03T12:51:08.070Z,16.90
2019-05-03T12:53:57.569Z,16.90
2019-05-03T12:56:32.703Z,17.10
2019-05-03T12:59:06.063Z,17.20
2019-05-03T13:01:45.369Z,16.90
2019-05-03T13:04:25.846Z,16.90
2019-05-03T13:07:02.946Z,16.80
2019-05-03T13:09:32.644Z,16.80
2019-05-03T13:12:02.235Z,16.60
2019-05-03T13:14:31.935Z,16.70
2019-05-03T13:17:01.654Z,16.70
2019-05-03T13:19:31.342Z,16.70
2019-05-03T13:22:01.034Z,16.80
2019-05-03T13:24:30.665Z,16.80
2019-05-03T13:27:00.279Z,16.80
2019-05-03T13:29:29.992Z,16.60
2019-05-03T13:32:02.172Z,16.60
2019-05-03T13:34:30.934Z,16.30
2019-05-03T13:37:00.613Z,16.30
2019-05-03T13:39:30.310Z,16.40
2019-05-03T13:42:01.218Z,16.50
2019-05-03T13:44:31.497Z,16.40
2019-05-03T13:47:01.050Z,16.20
2019-05-03T13:49:30.786Z,16.10
2019-05-03T13:52:00.443Z,16.20
2019-05-03T13:54:30.353Z,16.30
2019-05-03T13:57:04.809Z,16.40
2019-05-03T13:59:34.113Z,16.40
2019-05-03T14:02:12.433Z,16.40
2019-05-03T14:04:48.739Z,16.10
2019-05-03T14:07:06.429Z,16.00
2019-05-03T14:09:36.116Z,16.00
2019-05-03T14:12:07.630Z,16.10
2019-05-03T14:14:38.669Z,16.20
2019-05-03T14:17:08.365Z,16.20
2019-05-03T14:19:39.668Z,16.40
2019-05-03T14:22:10.925Z,16.40
2019-05-03T14:24:40.466Z,16.50
2019-05-03T14:27:10.150Z,16.40
2019-05-03T14:29:39.750Z,16.40
2019-05-03T14:32:09.332Z,16.10
2019-05-03T14:34:38.948Z,16.20
2019-05-03T14:37:08.587Z,16.20
2019-05-03T14:39:41.033Z,16.40
2019-05-03T14:42:12.696Z,16.50
2019-05-03T14:44:42.404Z,16.40
2019-05-03T14:47:12.020Z,16.50
2019-05-03T14:52:29.084Z,16.80
2019-05-03T14:55:06.627Z,16.90
2019-05-03T14:57:38.341Z,17.00
2019-05-03T15:00:10.982Z,16.90
2019-05-03T15:02:50.314Z,17.00
2019-05-03T15:05:16.371Z,17.00
2019-05-03T15:07:46.078Z,17.00
2019-05-03T15:10:16.045Z,17.20
2019-05-03T15:12:45.766Z,17.20
2019-05-03T15:15:15.860Z,17.20
2019-05-03T15:17:45.863Z,17.10
2019-05-03T15:20:16.659Z,17.10
2019-05-03T15:22:46.365Z,17.00
2019-05-03T15:25:16.129Z,17.10
2019-05-03T15:27:48.420Z,16.80
2019-05-03T15:30:16.952Z,16.70
2019-05-03T15:32:56.607Z,16.70
2019-05-03T15:35:18.251Z,16.90
2019-05-03T15:37:47.900Z,17.10
2019-05-03T15:40:17.528Z,17.30
2019-05-03T15:42:48.744Z,17.30
2019-05-03T15:45:21.897Z,17.40
2019-05-03T15:48:08.038Z,17.40
2019-05-03T15:50:46.159Z,17.40
2019-05-03T15:53:16.460Z,17.40
2019-05-03T15:55:46.053Z,17.40
2019-05-03T15:58:15.594Z,17.40
2019-05-03T16:00:45.251Z,17.30
2019-05-03T16:03:15.059Z,17.30
2019-05-03T16:05:44.822Z,17.30
2019-05-03T16:08:15.432Z,17.40
2019-05-03T16:10:45.701Z,17.40
2019-05-03T16:13:15.637Z,17.40
2019-05-03T16:15:45.223Z,17.40
2019-05-03T16:18:14.964Z,17.40
2019-05-03T16:20:45.806Z,17.40
2019-05-03T16:23:15.543Z,17.40
2019-05-03T16:25:45.308Z,17.40
2019-05-03T16:28:31.657Z,17.30
2019-05-03T16:31:02.065Z,17.30
2019-05-03T16:33:38.245Z,17.30
2019-05-03T16:36:07.963Z,17.10
2019-05-03T16:38:37.541Z,17.10
2019-05-03T16:41:07.090Z,17.20
2019-05-03T16:43:36.708Z,17.30
2019-05-03T16:46:06.330Z,17.30
2019-05-03T16:48:35.913Z,17.20
2019-05-03T16:51:05.613Z,17.20
2019-05-03T16:53:35.198Z,17.20
2019-05-03T16:56:05.580Z,17.30
2019-05-03T16:58:35.509Z,17.30
2019-05-03T17:01:05.235Z,17.20
2019-05-03T17:03:41.213Z,17.20
2019-05-03T17:06:14.842Z,17.10
2019-05-03T17:08:46.141Z,17.10
2019-05-03T17:11:17.430Z,17.10
2019-05-03T17:13:48.002Z,17.10
2019-05-03T17:16:17.968Z,17.00
2019-05-03T17:18:47.953Z,17.10
2019-05-03T17:21:17.702Z,17.00
2019-05-03T17:23:47.401Z,16.90
2019-05-03T17:26:17.587Z,17.80
2019-05-03T17:28:47.549Z,17.40
2019-05-03T17:31:17.136Z,17.10
2019-05-03T17:33:53.557Z,17.00
2019-05-03T17:36:18.157Z,17.00
2019-05-03T17:38:49.447Z,17.10
2019-05-03T17:41:25.444Z,17.10
2019-05-03T17:44:01.762Z,16.90
2019-05-03T17:46:31.448Z,17.00
2019-05-03T17:49:01.240Z,17.20
2019-05-03T17:51:45.470Z,16.90
2019-05-03T17:54:16.688Z,16.70
2019-05-03T17:56:56.820Z,16.60
2019-05-03T17:59:27.994Z,16.40
2019-05-03T18:02:15.636Z,16.40
2019-05-03T18:05:05.263Z,16.30
2019-05-03T18:07:39.420Z,16.40
2019-05-03T18:10:10.213Z,16.40
2019-05-03T18:12:39.788Z,16.40
2019-05-03T18:15:09.331Z,16.50
2019-05-03T18:17:38.982Z,16.40
2019-05-03T18:20:08.746Z,16.40
2019-05-03T18:22:38.500Z,16.30
2019-05-03T18:25:08.428Z,16.10
2019-05-03T18:27:38.032Z,16.00
2019-05-03T18:30:09.163Z,15.90
2019-05-03T18:32:38.755Z,15.90
2019-05-03T18:35:08.364Z,15.90
2019-05-03T18:37:38.227Z,16.00
2019-05-03T18:40:09.503Z,15.90
2019-05-03T18:42:44.770Z,15.90
2019-05-03T18:45:19.021Z,15.90
2019-05-03T18:47:49.094Z,15.90
2019-05-03T18:50:18.667Z,15.90
2019-05-03T18:52:48.363Z,15.90
2019-05-03T18:55:17.964Z,15.80
2019-05-03T18:57:47.571Z,15.80
2019-05-03T19:00:20.292Z,15.90
2019-05-03T19:02:50.049Z,15.80
2019-05-03T19:05:21.243Z,15.70
2019-05-03T19:08:01.203Z,15.60
2019-05-03T19:10:35.485Z,15.60
2019-05-03T19:13:14.847Z,15.60
2019-05-03T19:15:44.280Z,15.40
2019-05-03T19:18:15.568Z,15.40
2019-05-03T19:20:46.340Z,15.30
2019-05-03T19:23:15.951Z,15.50
2019-05-03T19:25:49.212Z,15.60
2019-05-03T19:28:16.860Z,15.40
2019-05-03T19:30:47.378Z,15.50
2019-05-03T19:33:17.038Z,15.70
2019-05-03T19:35:47.629Z,15.70
2019-05-03T19:38:17.307Z,15.50
2019-05-03T19:40:46.959Z,15.30
2019-05-03T19:43:16.607Z,15.20
2019-05-03T19:45:46.211Z,15.10
2019-05-03T19:48:17.003Z,15.00
2019-05-03T19:50:46.667Z,15.10
2019-05-03T19:53:20.831Z,15.10
2019-05-03T19:55:50.873Z,15.10
2019-05-03T19:58:20.555Z,14.80
2019-05-03T20:00:51.851Z,14.90
2019-05-03T20:03:29.063Z,15.00
2019-05-03T20:06:04.847Z,15.00
2019-05-03T20:08:35.949Z,15.00
2019-05-03T20:11:18.562Z,14.70
2019-05-03T20:13:48.147Z,14.80
2019-05-03T20:16:17.754Z,14.80
2019-05-03T20:18:47.328Z,14.80
2019-05-03T20:21:17.009Z,15.00
2019-05-03T20:23:47.074Z,14.70
2019-05-03T20:26:17.258Z,14.80
2019-05-03T20:28:46.871Z,14.90
2019-05-03T20:31:16.550Z,14.90
2019-05-03T20:33:47.397Z,15.00
2019-05-03T20:36:18.214Z,15.20
2019-05-03T20:38:47.730Z,15.00
2019-05-03T20:41:17.378Z,15.00
2019-05-03T20:44:09.211Z,14.90
2019-05-03T20:46:40.711Z,15.10
2019-05-03T20:49:12.063Z,15.10
2019-05-03T20:51:41.646Z,15.00
2019-05-03T20:54:11.191Z,15.20
2019-05-03T20:56:40.858Z,15.30
2019-05-03T20:59:10.405Z,15.10
2019-05-03T21:01:40.149Z,15.00
2019-05-03T21:04:09.827Z,14.90
2019-05-03T21:06:40.006Z,14.90
2019-05-03T21:09:10.054Z,14.80
2019-05-03T21:11:41.148Z,14.80
2019-05-03T21:14:10.790Z,14.60
2019-05-03T21:16:48.342Z,14.70
2019-05-03T21:19:25.152Z,14.60
2019-05-03T21:22:15.678Z,14.70
2019-05-03T21:24:58.966Z,14.80
2019-05-03T21:27:28.445Z,14.90
2019-05-03T21:29:58.018Z,15.10
2019-05-03T21:32:27.527Z,15.10
2019-05-03T21:34:57.053Z,15.10
2019-05-03T21:37:26.606Z,15.10
2019-05-03T21:39:56.188Z,15.00
2019-05-03T21:42:25.841Z,14.90
2019-05-03T21:44:55.633Z,14.90
2019-05-03T21:47:26.983Z,15.00
2019-05-03T21:49:58.111Z,15.00
2019-05-03T21:52:27.624Z,15.00
2019-05-03T21:54:58.271Z,15.10
2019-05-03T21:57:27.858Z,15.10
2019-05-03T21:59:57.399Z,15.00
2019-05-03T22:02:26.983Z,15.10
2019-05-03T22:04:56.611Z,15.00
2019-05-03T22:07:26.840Z,15.00
2019-05-03T22:09:56.514Z,15.00
2019-05-03T22:12:26.047Z,14.90
2019-05-03T22:14:57.132Z,14.70
2019-05-03T22:17:45.924Z,14.70
2019-05-03T22:20:20.026Z,14.70
2019-05-03T22:22:55.408Z,14.60
2019-05-03T22:25:26.863Z,14.70
2019-05-03T22:27:56.422Z,14.60
2019-05-03T22:30:26.846Z,14.70
2019-05-03T22:32:57.666Z,14.40
2019-05-03T22:35:27.342Z,14.30
2019-05-03T22:37:56.958Z,14.40
2019-05-03T22:40:28.591Z,14.50
2019-05-03T22:42:58.036Z,14.50
2019-05-03T22:45:27.684Z,14.50
2019-05-03T22:47:57.194Z,14.50
2019-05-03T22:50:26.683Z,14.50
2019-05-03T22:52:56.252Z,14.50
2019-05-03T22:55:25.871Z,14.30
2019-05-03T22:57:55.436Z,14.30
2019-05-03T23:00:26.392Z,14.10
2019-05-03T23:02:55.960Z,13.90
2019-05-03T23:05:25.600Z,13.90
2019-05-03T23:07:55.331Z,13.90
2019-05-03T23:10:25.667Z,13.90
2019-05-03T23:12:55.312Z,14.00
2019-05-03T23:15:24.855Z,14.00
2019-05-03T23:17:54.763Z,14.00
2019-05-03T23:20:37.923Z,13.90
2019-05-03T23:23:09.151Z,14.00
2019-05-03T23:25:38.695Z,13.90
2019-05-03T23:28:08.143Z,13.70
2019-05-03T23:30:37.659Z,13.60
2019-05-03T23:33:07.083Z,13.60
2019-05-03T23:35:36.631Z,13.70
2019-05-03T23:38:06.111Z,13.80
2019-05-03T23:40:35.547Z,13.80
2019-05-03T23:43:05.276Z,13.70
2019-05-03T23:45:35.926Z,13.60
2019-05-03T23:48:05.471Z,13.40
2019-05-03T23:50:35.366Z,13.40
2019-05-03T23:53:05.125Z,13.50
2019-05-03T23:55:39.242Z,13.60
2019-05-03T23:58:08.687Z,13.60
